<?xml version="1.0" encoding="UTF-8" standalone="no" ?>
<gpx xmlns="http://www.topografix.com/GPX/1/1" xmlns:xsi="http://www.w3.org/2001/XMLSchema-instance" xsi:schemaLocation="http://www.topografix.com/GPX/1/1 http://www.topografix.com/GPX/1/1/gpx.xsd" version="1.1" creator="VisuGPX - https://www.visugpx.com">
  <metadata>
    <name>2017-02-05 Col de la Charbonnière</name>
    <desc><![CDATA[2017-02-05 Col de la Charbonnière rando des Forts Trotters]]></desc>
  </metadata>
  <trk>
    <name><![CDATA[OR-8036541--Steige:2017-02-05 Col de la Charbonnière]]></name>
    <trkseg>
      <trkpt lat="48.38373" lon="7.25763">
        <ele>967</ele>
        <time>2017-10-22T21:14:43Z</time>
      </trkpt>
      <trkpt lat="48.38355" lon="7.25727">
        <ele>967</ele>
        <time>2017-10-22T21:16:43Z</time>
      </trkpt>
      <trkpt lat="48.38405" lon="7.25667">
        <ele>964</ele>
        <time>2017-10-22T21:18:43Z</time>
      </trkpt>
      <trkpt lat="48.38418" lon="7.25653">
        <ele>963</ele>
        <time>2017-10-22T21:20:43Z</time>
      </trkpt>
      <trkpt lat="48.38438" lon="7.25634">
        <ele>963</ele>
        <time>2017-10-22T21:22:43Z</time>
      </trkpt>
      <trkpt lat="48.38451" lon="7.25624">
        <ele>962</ele>
        <time>2017-10-22T21:24:43Z</time>
      </trkpt>
      <trkpt lat="48.38458" lon="7.25617">
        <ele>962</ele>
        <time>2017-10-22T21:26:43Z</time>
      </trkpt>
      <trkpt lat="48.38471" lon="7.25605">
        <ele>962</ele>
        <time>2017-10-22T21:28:43Z</time>
      </trkpt>
      <trkpt lat="48.38482" lon="7.25591">
        <ele>961</ele>
        <time>2017-10-22T21:30:43Z</time>
      </trkpt>
      <trkpt lat="48.38492" lon="7.25579">
        <ele>961</ele>
        <time>2017-10-22T21:32:43Z</time>
      </trkpt>
      <trkpt lat="48.38502" lon="7.25568">
        <ele>961</ele>
        <time>2017-10-22T21:34:43Z</time>
      </trkpt>
      <trkpt lat="48.38514" lon="7.25552">
        <ele>961</ele>
        <time>2017-10-22T21:36:43Z</time>
      </trkpt>
      <trkpt lat="48.38533" lon="7.25534">
        <ele>961</ele>
        <time>2017-10-22T21:38:43Z</time>
      </trkpt>
      <trkpt lat="48.38543" lon="7.25519">
        <ele>959</ele>
        <time>2017-10-22T21:40:43Z</time>
      </trkpt>
      <trkpt lat="48.38554" lon="7.25489">
        <ele>958</ele>
        <time>2017-10-22T21:42:43Z</time>
      </trkpt>
      <trkpt lat="48.38563" lon="7.25464">
        <ele>957</ele>
        <time>2017-10-22T21:44:43Z</time>
      </trkpt>
      <trkpt lat="48.38568" lon="7.25446">
        <ele>956</ele>
        <time>2017-10-22T21:46:43Z</time>
      </trkpt>
      <trkpt lat="48.38582" lon="7.25432">
        <ele>952</ele>
        <time>2017-10-22T21:48:43Z</time>
      </trkpt>
      <trkpt lat="48.38596" lon="7.25422">
        <ele>950</ele>
        <time>2017-10-22T21:50:43Z</time>
      </trkpt>
      <trkpt lat="48.38609" lon="7.25409">
        <ele>949</ele>
        <time>2017-10-22T21:52:43Z</time>
      </trkpt>
      <trkpt lat="48.38621" lon="7.254">
        <ele>949</ele>
        <time>2017-10-22T21:54:43Z</time>
      </trkpt>
      <trkpt lat="48.38625" lon="7.25385">
        <ele>949</ele>
        <time>2017-10-22T21:56:43Z</time>
      </trkpt>
      <trkpt lat="48.38622" lon="7.25377">
        <ele>950</ele>
        <time>2017-10-22T21:58:43Z</time>
      </trkpt>
      <trkpt lat="48.38622" lon="7.25367">
        <ele>951</ele>
        <time>2017-10-22T22:00:43Z</time>
      </trkpt>
      <trkpt lat="48.3863" lon="7.25335">
        <ele>951</ele>
        <time>2017-10-22T22:02:43Z</time>
      </trkpt>
      <trkpt lat="48.38639" lon="7.25313">
        <ele>953</ele>
        <time>2017-10-22T22:04:43Z</time>
      </trkpt>
      <trkpt lat="48.38646" lon="7.25299">
        <ele>954</ele>
        <time>2017-10-22T22:06:43Z</time>
      </trkpt>
      <trkpt lat="48.38658" lon="7.2528">
        <ele>954</ele>
        <time>2017-10-22T22:08:43Z</time>
      </trkpt>
      <trkpt lat="48.3867" lon="7.25263">
        <ele>955</ele>
        <time>2017-10-22T22:10:43Z</time>
      </trkpt>
      <trkpt lat="48.38681" lon="7.25241">
        <ele>957</ele>
        <time>2017-10-22T22:12:43Z</time>
      </trkpt>
      <trkpt lat="48.38697" lon="7.25225">
        <ele>957</ele>
        <time>2017-10-22T22:14:43Z</time>
      </trkpt>
      <trkpt lat="48.38711" lon="7.25219">
        <ele>955</ele>
        <time>2017-10-22T22:16:43Z</time>
      </trkpt>
      <trkpt lat="48.38755" lon="7.25176">
        <ele>954</ele>
        <time>2017-10-22T22:18:43Z</time>
      </trkpt>
      <trkpt lat="48.38768" lon="7.25159">
        <ele>953</ele>
        <time>2017-10-22T22:20:43Z</time>
      </trkpt>
      <trkpt lat="48.38785" lon="7.25131">
        <ele>952</ele>
        <time>2017-10-22T22:22:43Z</time>
      </trkpt>
      <trkpt lat="48.38797" lon="7.25108">
        <ele>952</ele>
        <time>2017-10-22T22:24:43Z</time>
      </trkpt>
      <trkpt lat="48.3881" lon="7.25081">
        <ele>951</ele>
        <time>2017-10-22T22:26:43Z</time>
      </trkpt>
      <trkpt lat="48.3882" lon="7.25058">
        <ele>950</ele>
        <time>2017-10-22T22:28:43Z</time>
      </trkpt>
      <trkpt lat="48.38833" lon="7.25014">
        <ele>950</ele>
        <time>2017-10-22T22:30:43Z</time>
      </trkpt>
      <trkpt lat="48.38848" lon="7.24954">
        <ele>948</ele>
        <time>2017-10-22T22:32:43Z</time>
      </trkpt>
      <trkpt lat="48.38855" lon="7.24939">
        <ele>947</ele>
        <time>2017-10-22T22:34:43Z</time>
      </trkpt>
      <trkpt lat="48.3886" lon="7.24899">
        <ele>947</ele>
        <time>2017-10-22T22:36:43Z</time>
      </trkpt>
      <trkpt lat="48.38864" lon="7.24837">
        <ele>948</ele>
        <time>2017-10-22T22:38:43Z</time>
      </trkpt>
      <trkpt lat="48.38864" lon="7.24813">
        <ele>949</ele>
        <time>2017-10-22T22:40:43Z</time>
      </trkpt>
      <trkpt lat="48.38864" lon="7.24791">
        <ele>950</ele>
        <time>2017-10-22T22:42:43Z</time>
      </trkpt>
      <trkpt lat="48.38862" lon="7.24758">
        <ele>953</ele>
        <time>2017-10-22T22:44:43Z</time>
      </trkpt>
      <trkpt lat="48.38853" lon="7.24691">
        <ele>955</ele>
        <time>2017-10-22T22:46:43Z</time>
      </trkpt>
      <trkpt lat="48.3884" lon="7.24613">
        <ele>955</ele>
        <time>2017-10-22T22:48:43Z</time>
      </trkpt>
      <trkpt lat="48.38826" lon="7.24562">
        <ele>955</ele>
        <time>2017-10-22T22:50:43Z</time>
      </trkpt>
      <trkpt lat="48.38817" lon="7.24541">
        <ele>955</ele>
        <time>2017-10-22T22:52:43Z</time>
      </trkpt>
      <trkpt lat="48.3879" lon="7.24493">
        <ele>956</ele>
        <time>2017-10-22T22:54:43Z</time>
      </trkpt>
      <trkpt lat="48.3876" lon="7.24455">
        <ele>959</ele>
        <time>2017-10-22T22:56:43Z</time>
      </trkpt>
      <trkpt lat="48.3871" lon="7.24411">
        <ele>965</ele>
        <time>2017-10-22T22:58:43Z</time>
      </trkpt>
      <trkpt lat="48.38712" lon="7.24401">
        <ele>966</ele>
        <time>2017-10-22T23:00:43Z</time>
      </trkpt>
      <trkpt lat="48.3872" lon="7.24387">
        <ele>966</ele>
        <time>2017-10-22T23:02:43Z</time>
      </trkpt>
      <trkpt lat="48.38746" lon="7.24362">
        <ele>964</ele>
        <time>2017-10-22T23:04:43Z</time>
      </trkpt>
      <trkpt lat="48.38767" lon="7.24339">
        <ele>962</ele>
        <time>2017-10-22T23:06:43Z</time>
      </trkpt>
      <trkpt lat="48.38798" lon="7.24287">
        <ele>960</ele>
        <time>2017-10-22T23:08:43Z</time>
      </trkpt>
      <trkpt lat="48.38804" lon="7.2428">
        <ele>959</ele>
        <time>2017-10-22T23:10:43Z</time>
      </trkpt>
      <trkpt lat="48.38816" lon="7.2426">
        <ele>957</ele>
        <time>2017-10-22T23:12:43Z</time>
      </trkpt>
      <trkpt lat="48.38822" lon="7.24226">
        <ele>957</ele>
        <time>2017-10-22T23:14:43Z</time>
      </trkpt>
      <trkpt lat="48.38824" lon="7.24209">
        <ele>957</ele>
        <time>2017-10-22T23:16:43Z</time>
      </trkpt>
      <trkpt lat="48.38825" lon="7.24199">
        <ele>958</ele>
        <time>2017-10-22T23:18:43Z</time>
      </trkpt>
      <trkpt lat="48.38823" lon="7.24151">
        <ele>959</ele>
        <time>2017-10-22T23:20:43Z</time>
      </trkpt>
      <trkpt lat="48.38814" lon="7.24095">
        <ele>961</ele>
        <time>2017-10-22T23:22:43Z</time>
      </trkpt>
      <trkpt lat="48.38803" lon="7.24043">
        <ele>964</ele>
        <time>2017-10-22T23:24:43Z</time>
      </trkpt>
      <trkpt lat="48.38798" lon="7.24027">
        <ele>966</ele>
        <time>2017-10-22T23:26:43Z</time>
      </trkpt>
      <trkpt lat="48.38796" lon="7.24012">
        <ele>967</ele>
        <time>2017-10-22T23:28:43Z</time>
      </trkpt>
      <trkpt lat="48.38796" lon="7.23988">
        <ele>968</ele>
        <time>2017-10-22T23:30:43Z</time>
      </trkpt>
      <trkpt lat="48.38796" lon="7.23977">
        <ele>969</ele>
        <time>2017-10-22T23:32:43Z</time>
      </trkpt>
      <trkpt lat="48.38799" lon="7.23953">
        <ele>970</ele>
        <time>2017-10-22T23:34:43Z</time>
      </trkpt>
      <trkpt lat="48.3881" lon="7.23909">
        <ele>970</ele>
        <time>2017-10-22T23:36:43Z</time>
      </trkpt>
      <trkpt lat="48.38817" lon="7.23886">
        <ele>969</ele>
        <time>2017-10-22T23:38:43Z</time>
      </trkpt>
      <trkpt lat="48.38823" lon="7.23859">
        <ele>968</ele>
        <time>2017-10-22T23:40:43Z</time>
      </trkpt>
      <trkpt lat="48.38828" lon="7.23842">
        <ele>968</ele>
        <time>2017-10-22T23:42:43Z</time>
      </trkpt>
      <trkpt lat="48.38827" lon="7.23834">
        <ele>969</ele>
        <time>2017-10-22T23:44:43Z</time>
      </trkpt>
      <trkpt lat="48.38824" lon="7.2379">
        <ele>970</ele>
        <time>2017-10-22T23:46:43Z</time>
      </trkpt>
      <trkpt lat="48.38824" lon="7.23761">
        <ele>970</ele>
        <time>2017-10-22T23:48:43Z</time>
      </trkpt>
      <trkpt lat="48.38824" lon="7.23742">
        <ele>970</ele>
        <time>2017-10-22T23:50:43Z</time>
      </trkpt>
      <trkpt lat="48.38821" lon="7.23702">
        <ele>969</ele>
        <time>2017-10-22T23:52:43Z</time>
      </trkpt>
      <trkpt lat="48.38819" lon="7.23662">
        <ele>968</ele>
        <time>2017-10-22T23:54:43Z</time>
      </trkpt>
      <trkpt lat="48.3882" lon="7.23628">
        <ele>966</ele>
        <time>2017-10-22T23:56:43Z</time>
      </trkpt>
      <trkpt lat="48.38823" lon="7.23603">
        <ele>964</ele>
        <time>2017-10-22T23:58:43Z</time>
      </trkpt>
      <trkpt lat="48.38836" lon="7.23541">
        <ele>957</ele>
        <time>2017-10-23T00:00:43Z</time>
      </trkpt>
      <trkpt lat="48.3884" lon="7.2351">
        <ele>954</ele>
        <time>2017-10-23T00:02:43Z</time>
      </trkpt>
      <trkpt lat="48.38846" lon="7.23484">
        <ele>952</ele>
        <time>2017-10-23T00:04:43Z</time>
      </trkpt>
      <trkpt lat="48.38864" lon="7.23436">
        <ele>952</ele>
        <time>2017-10-23T00:06:43Z</time>
      </trkpt>
      <trkpt lat="48.38873" lon="7.2341">
        <ele>951</ele>
        <time>2017-10-23T00:08:43Z</time>
      </trkpt>
      <trkpt lat="48.38895" lon="7.2336">
        <ele>949</ele>
        <time>2017-10-23T00:10:43Z</time>
      </trkpt>
      <trkpt lat="48.38913" lon="7.23318">
        <ele>946</ele>
        <time>2017-10-23T00:12:43Z</time>
      </trkpt>
      <trkpt lat="48.38917" lon="7.23293">
        <ele>942</ele>
        <time>2017-10-23T00:14:43Z</time>
      </trkpt>
      <trkpt lat="48.38919" lon="7.23277">
        <ele>940</ele>
        <time>2017-10-23T00:16:43Z</time>
      </trkpt>
      <trkpt lat="48.38919" lon="7.2323">
        <ele>933</ele>
        <time>2017-10-23T00:18:43Z</time>
      </trkpt>
      <trkpt lat="48.38923" lon="7.23167">
        <ele>928</ele>
        <time>2017-10-23T00:20:43Z</time>
      </trkpt>
      <trkpt lat="48.38918" lon="7.23152">
        <ele>927</ele>
        <time>2017-10-23T00:22:43Z</time>
      </trkpt>
      <trkpt lat="48.38921" lon="7.23138">
        <ele>927</ele>
        <time>2017-10-23T00:24:43Z</time>
      </trkpt>
      <trkpt lat="48.38925" lon="7.23113">
        <ele>926</ele>
        <time>2017-10-23T00:26:43Z</time>
      </trkpt>
      <trkpt lat="48.38929" lon="7.23093">
        <ele>926</ele>
        <time>2017-10-23T00:28:43Z</time>
      </trkpt>
      <trkpt lat="48.38933" lon="7.23068">
        <ele>925</ele>
        <time>2017-10-23T00:30:43Z</time>
      </trkpt>
      <trkpt lat="48.38935" lon="7.23045">
        <ele>923</ele>
        <time>2017-10-23T00:32:43Z</time>
      </trkpt>
      <trkpt lat="48.38935" lon="7.2303">
        <ele>923</ele>
        <time>2017-10-23T00:34:43Z</time>
      </trkpt>
      <trkpt lat="48.38936" lon="7.23011">
        <ele>922</ele>
        <time>2017-10-23T00:36:43Z</time>
      </trkpt>
      <trkpt lat="48.38934" lon="7.22998">
        <ele>921</ele>
        <time>2017-10-23T00:38:43Z</time>
      </trkpt>
      <trkpt lat="48.38932" lon="7.22974">
        <ele>920</ele>
        <time>2017-10-23T00:40:43Z</time>
      </trkpt>
      <trkpt lat="48.38927" lon="7.22955">
        <ele>919</ele>
        <time>2017-10-23T00:42:43Z</time>
      </trkpt>
      <trkpt lat="48.38924" lon="7.22942">
        <ele>919</ele>
        <time>2017-10-23T00:44:43Z</time>
      </trkpt>
      <trkpt lat="48.38932" lon="7.22924">
        <ele>919</ele>
        <time>2017-10-23T00:46:43Z</time>
      </trkpt>
      <trkpt lat="48.38941" lon="7.22905">
        <ele>919</ele>
        <time>2017-10-23T00:48:43Z</time>
      </trkpt>
      <trkpt lat="48.38948" lon="7.22881">
        <ele>919</ele>
        <time>2017-10-23T00:50:43Z</time>
      </trkpt>
      <trkpt lat="48.38953" lon="7.22857">
        <ele>918</ele>
        <time>2017-10-23T00:52:43Z</time>
      </trkpt>
      <trkpt lat="48.38961" lon="7.22811">
        <ele>916</ele>
        <time>2017-10-23T00:54:43Z</time>
      </trkpt>
      <trkpt lat="48.38964" lon="7.22766">
        <ele>912</ele>
        <time>2017-10-23T00:56:43Z</time>
      </trkpt>
      <trkpt lat="48.38965" lon="7.22738">
        <ele>911</ele>
        <time>2017-10-23T00:58:43Z</time>
      </trkpt>
      <trkpt lat="48.38969" lon="7.22718">
        <ele>912</ele>
        <time>2017-10-23T01:00:43Z</time>
      </trkpt>
      <trkpt lat="48.38978" lon="7.22702">
        <ele>911</ele>
        <time>2017-10-23T01:02:43Z</time>
      </trkpt>
      <trkpt lat="48.3899" lon="7.22683">
        <ele>910</ele>
        <time>2017-10-23T01:04:43Z</time>
      </trkpt>
      <trkpt lat="48.39004" lon="7.22665">
        <ele>909</ele>
        <time>2017-10-23T01:06:43Z</time>
      </trkpt>
      <trkpt lat="48.39029" lon="7.22641">
        <ele>910</ele>
        <time>2017-10-23T01:08:43Z</time>
      </trkpt>
      <trkpt lat="48.39047" lon="7.22623">
        <ele>911</ele>
        <time>2017-10-23T01:10:43Z</time>
      </trkpt>
      <trkpt lat="48.3907" lon="7.226">
        <ele>911</ele>
        <time>2017-10-23T01:12:43Z</time>
      </trkpt>
      <trkpt lat="48.39091" lon="7.22577">
        <ele>912</ele>
        <time>2017-10-23T01:14:43Z</time>
      </trkpt>
      <trkpt lat="48.39109" lon="7.22565">
        <ele>910</ele>
        <time>2017-10-23T01:16:43Z</time>
      </trkpt>
      <trkpt lat="48.39121" lon="7.22553">
        <ele>910</ele>
        <time>2017-10-23T01:18:43Z</time>
      </trkpt>
      <trkpt lat="48.39139" lon="7.22542">
        <ele>909</ele>
        <time>2017-10-23T01:20:43Z</time>
      </trkpt>
      <trkpt lat="48.39151" lon="7.22533">
        <ele>909</ele>
        <time>2017-10-23T01:22:43Z</time>
      </trkpt>
      <trkpt lat="48.39167" lon="7.22528">
        <ele>907</ele>
        <time>2017-10-23T01:24:43Z</time>
      </trkpt>
      <trkpt lat="48.39184" lon="7.22524">
        <ele>905</ele>
        <time>2017-10-23T01:26:43Z</time>
      </trkpt>
      <trkpt lat="48.392" lon="7.22518">
        <ele>904</ele>
        <time>2017-10-23T01:28:43Z</time>
      </trkpt>
      <trkpt lat="48.39215" lon="7.22511">
        <ele>902</ele>
        <time>2017-10-23T01:30:43Z</time>
      </trkpt>
      <trkpt lat="48.39229" lon="7.22501">
        <ele>900</ele>
        <time>2017-10-23T01:32:43Z</time>
      </trkpt>
      <trkpt lat="48.39244" lon="7.22494">
        <ele>898</ele>
        <time>2017-10-23T01:34:43Z</time>
      </trkpt>
      <trkpt lat="48.39252" lon="7.22491">
        <ele>897</ele>
        <time>2017-10-23T01:36:43Z</time>
      </trkpt>
      <trkpt lat="48.39266" lon="7.2249">
        <ele>896</ele>
        <time>2017-10-23T01:38:43Z</time>
      </trkpt>
      <trkpt lat="48.39278" lon="7.22493">
        <ele>895</ele>
        <time>2017-10-23T01:40:43Z</time>
      </trkpt>
      <trkpt lat="48.39296" lon="7.22494">
        <ele>894</ele>
        <time>2017-10-23T01:42:43Z</time>
      </trkpt>
      <trkpt lat="48.39311" lon="7.22499">
        <ele>893</ele>
        <time>2017-10-23T01:44:43Z</time>
      </trkpt>
      <trkpt lat="48.39326" lon="7.22501">
        <ele>892</ele>
        <time>2017-10-23T01:46:43Z</time>
      </trkpt>
      <trkpt lat="48.39341" lon="7.22498">
        <ele>890</ele>
        <time>2017-10-23T01:48:43Z</time>
      </trkpt>
      <trkpt lat="48.39357" lon="7.22496">
        <ele>889</ele>
        <time>2017-10-23T01:50:43Z</time>
      </trkpt>
      <trkpt lat="48.39372" lon="7.22501">
        <ele>888</ele>
        <time>2017-10-23T01:52:43Z</time>
      </trkpt>
      <trkpt lat="48.39388" lon="7.22502">
        <ele>886</ele>
        <time>2017-10-23T01:54:43Z</time>
      </trkpt>
      <trkpt lat="48.39398" lon="7.22492">
        <ele>885</ele>
        <time>2017-10-23T01:56:43Z</time>
      </trkpt>
      <trkpt lat="48.39404" lon="7.22474">
        <ele>884</ele>
        <time>2017-10-23T01:58:43Z</time>
      </trkpt>
      <trkpt lat="48.39406" lon="7.22452">
        <ele>883</ele>
        <time>2017-10-23T02:00:43Z</time>
      </trkpt>
      <trkpt lat="48.39406" lon="7.22428">
        <ele>882</ele>
        <time>2017-10-23T02:02:43Z</time>
      </trkpt>
      <trkpt lat="48.39408" lon="7.22407">
        <ele>882</ele>
        <time>2017-10-23T02:04:43Z</time>
      </trkpt>
      <trkpt lat="48.39413" lon="7.22383">
        <ele>881</ele>
        <time>2017-10-23T02:06:43Z</time>
      </trkpt>
      <trkpt lat="48.39419" lon="7.22363">
        <ele>880</ele>
        <time>2017-10-23T02:08:43Z</time>
      </trkpt>
      <trkpt lat="48.39426" lon="7.2234">
        <ele>879</ele>
        <time>2017-10-23T02:10:43Z</time>
      </trkpt>
      <trkpt lat="48.39436" lon="7.22314">
        <ele>877</ele>
        <time>2017-10-23T02:12:43Z</time>
      </trkpt>
      <trkpt lat="48.39442" lon="7.22298">
        <ele>876</ele>
        <time>2017-10-23T02:14:43Z</time>
      </trkpt>
      <trkpt lat="48.39452" lon="7.22282">
        <ele>875</ele>
        <time>2017-10-23T02:16:43Z</time>
      </trkpt>
      <trkpt lat="48.39458" lon="7.22262">
        <ele>873</ele>
        <time>2017-10-23T02:18:43Z</time>
      </trkpt>
      <trkpt lat="48.39461" lon="7.22239">
        <ele>872</ele>
        <time>2017-10-23T02:20:43Z</time>
      </trkpt>
      <trkpt lat="48.39467" lon="7.22215">
        <ele>871</ele>
        <time>2017-10-23T02:22:43Z</time>
      </trkpt>
      <trkpt lat="48.39475" lon="7.22193">
        <ele>869</ele>
        <time>2017-10-23T02:24:43Z</time>
      </trkpt>
      <trkpt lat="48.39484" lon="7.2217">
        <ele>867</ele>
        <time>2017-10-23T02:26:43Z</time>
      </trkpt>
      <trkpt lat="48.39495" lon="7.22151">
        <ele>865</ele>
        <time>2017-10-23T02:28:43Z</time>
      </trkpt>
      <trkpt lat="48.39506" lon="7.22134">
        <ele>864</ele>
        <time>2017-10-23T02:30:43Z</time>
      </trkpt>
      <trkpt lat="48.39515" lon="7.22116">
        <ele>863</ele>
        <time>2017-10-23T02:32:43Z</time>
      </trkpt>
      <trkpt lat="48.39525" lon="7.22101">
        <ele>862</ele>
        <time>2017-10-23T02:34:43Z</time>
      </trkpt>
      <trkpt lat="48.39534" lon="7.22093">
        <ele>861</ele>
        <time>2017-10-23T02:36:43Z</time>
      </trkpt>
      <trkpt lat="48.39541" lon="7.22085">
        <ele>861</ele>
        <time>2017-10-23T02:38:43Z</time>
      </trkpt>
      <trkpt lat="48.39553" lon="7.22073">
        <ele>860</ele>
        <time>2017-10-23T02:40:43Z</time>
      </trkpt>
      <trkpt lat="48.39565" lon="7.22061">
        <ele>860</ele>
        <time>2017-10-23T02:42:43Z</time>
      </trkpt>
      <trkpt lat="48.3958" lon="7.2205">
        <ele>859</ele>
        <time>2017-10-23T02:44:43Z</time>
      </trkpt>
      <trkpt lat="48.39588" lon="7.22043">
        <ele>857</ele>
        <time>2017-10-23T02:46:43Z</time>
      </trkpt>
      <trkpt lat="48.39595" lon="7.22035">
        <ele>856</ele>
        <time>2017-10-23T02:48:43Z</time>
      </trkpt>
      <trkpt lat="48.39596" lon="7.22023">
        <ele>856</ele>
        <time>2017-10-23T02:50:43Z</time>
      </trkpt>
      <trkpt lat="48.39595" lon="7.2201">
        <ele>857</ele>
        <time>2017-10-23T02:52:43Z</time>
      </trkpt>
      <trkpt lat="48.39588" lon="7.21986">
        <ele>859</ele>
        <time>2017-10-23T02:54:43Z</time>
      </trkpt>
      <trkpt lat="48.39582" lon="7.2195">
        <ele>861</ele>
        <time>2017-10-23T02:56:43Z</time>
      </trkpt>
      <trkpt lat="48.39578" lon="7.21922">
        <ele>862</ele>
        <time>2017-10-23T02:58:43Z</time>
      </trkpt>
      <trkpt lat="48.39574" lon="7.21901">
        <ele>862</ele>
        <time>2017-10-23T03:00:43Z</time>
      </trkpt>
      <trkpt lat="48.39566" lon="7.21869">
        <ele>862</ele>
        <time>2017-10-23T03:02:43Z</time>
      </trkpt>
      <trkpt lat="48.39556" lon="7.21829">
        <ele>863</ele>
        <time>2017-10-23T03:04:43Z</time>
      </trkpt>
      <trkpt lat="48.39541" lon="7.21791">
        <ele>863</ele>
        <time>2017-10-23T03:06:43Z</time>
      </trkpt>
      <trkpt lat="48.39529" lon="7.21765">
        <ele>864</ele>
        <time>2017-10-23T03:08:43Z</time>
      </trkpt>
      <trkpt lat="48.39509" lon="7.21727">
        <ele>865</ele>
        <time>2017-10-23T03:10:43Z</time>
      </trkpt>
      <trkpt lat="48.39499" lon="7.21701">
        <ele>864</ele>
        <time>2017-10-23T03:12:43Z</time>
      </trkpt>
      <trkpt lat="48.39487" lon="7.21667">
        <ele>861</ele>
        <time>2017-10-23T03:14:43Z</time>
      </trkpt>
      <trkpt lat="48.39471" lon="7.2163">
        <ele>856</ele>
        <time>2017-10-23T03:16:43Z</time>
      </trkpt>
      <trkpt lat="48.39458" lon="7.21606">
        <ele>853</ele>
        <time>2017-10-23T03:18:43Z</time>
      </trkpt>
      <trkpt lat="48.39447" lon="7.21588">
        <ele>851</ele>
        <time>2017-10-23T03:20:43Z</time>
      </trkpt>
      <trkpt lat="48.39418" lon="7.21553">
        <ele>848</ele>
        <time>2017-10-23T03:22:43Z</time>
      </trkpt>
      <trkpt lat="48.39401" lon="7.21538">
        <ele>846</ele>
        <time>2017-10-23T03:24:43Z</time>
      </trkpt>
      <trkpt lat="48.39375" lon="7.2152">
        <ele>844</ele>
        <time>2017-10-23T03:26:43Z</time>
      </trkpt>
      <trkpt lat="48.39353" lon="7.21516">
        <ele>847</ele>
        <time>2017-10-23T03:28:43Z</time>
      </trkpt>
      <trkpt lat="48.3932" lon="7.21503">
        <ele>847</ele>
        <time>2017-10-23T03:30:43Z</time>
      </trkpt>
      <trkpt lat="48.39295" lon="7.21488">
        <ele>846</ele>
        <time>2017-10-23T03:32:43Z</time>
      </trkpt>
      <trkpt lat="48.39286" lon="7.2148">
        <ele>845</ele>
        <time>2017-10-23T03:34:43Z</time>
      </trkpt>
      <trkpt lat="48.39281" lon="7.21469">
        <ele>843</ele>
        <time>2017-10-23T03:36:43Z</time>
      </trkpt>
      <trkpt lat="48.39265" lon="7.21412">
        <ele>835</ele>
        <time>2017-10-23T03:38:43Z</time>
      </trkpt>
      <trkpt lat="48.39259" lon="7.21384">
        <ele>834</ele>
        <time>2017-10-23T03:40:43Z</time>
      </trkpt>
      <trkpt lat="48.39246" lon="7.21344">
        <ele>835</ele>
        <time>2017-10-23T03:42:43Z</time>
      </trkpt>
      <trkpt lat="48.39236" lon="7.21308">
        <ele>835</ele>
        <time>2017-10-23T03:44:43Z</time>
      </trkpt>
      <trkpt lat="48.39227" lon="7.21273">
        <ele>834</ele>
        <time>2017-10-23T03:46:43Z</time>
      </trkpt>
      <trkpt lat="48.39218" lon="7.21246">
        <ele>834</ele>
        <time>2017-10-23T03:48:43Z</time>
      </trkpt>
      <trkpt lat="48.39213" lon="7.21234">
        <ele>833</ele>
        <time>2017-10-23T03:50:43Z</time>
      </trkpt>
      <trkpt lat="48.39195" lon="7.21197">
        <ele>831</ele>
        <time>2017-10-23T03:52:43Z</time>
      </trkpt>
      <trkpt lat="48.39175" lon="7.21162">
        <ele>830</ele>
        <time>2017-10-23T03:54:43Z</time>
      </trkpt>
      <trkpt lat="48.39139" lon="7.21128">
        <ele>824</ele>
        <time>2017-10-23T03:56:43Z</time>
      </trkpt>
      <trkpt lat="48.39113" lon="7.2111">
        <ele>822</ele>
        <time>2017-10-23T03:58:43Z</time>
      </trkpt>
      <trkpt lat="48.39093" lon="7.21101">
        <ele>822</ele>
        <time>2017-10-23T04:00:43Z</time>
      </trkpt>
      <trkpt lat="48.39071" lon="7.21084">
        <ele>818</ele>
        <time>2017-10-23T04:02:43Z</time>
      </trkpt>
      <trkpt lat="48.39053" lon="7.2107">
        <ele>815</ele>
        <time>2017-10-23T04:04:43Z</time>
      </trkpt>
      <trkpt lat="48.39045" lon="7.21064">
        <ele>814</ele>
        <time>2017-10-23T04:06:43Z</time>
      </trkpt>
      <trkpt lat="48.39028" lon="7.21053">
        <ele>813</ele>
        <time>2017-10-23T04:08:43Z</time>
      </trkpt>
      <trkpt lat="48.3902" lon="7.21053">
        <ele>814</ele>
        <time>2017-10-23T04:10:43Z</time>
      </trkpt>
      <trkpt lat="48.38995" lon="7.21053">
        <ele>815</ele>
        <time>2017-10-23T04:12:43Z</time>
      </trkpt>
      <trkpt lat="48.38976" lon="7.21055">
        <ele>811</ele>
        <time>2017-10-23T04:14:43Z</time>
      </trkpt>
      <trkpt lat="48.38968" lon="7.21062">
        <ele>809</ele>
        <time>2017-10-23T04:16:43Z</time>
      </trkpt>
      <trkpt lat="48.38961" lon="7.21043">
        <ele>806</ele>
        <time>2017-10-23T04:18:43Z</time>
      </trkpt>
      <trkpt lat="48.38953" lon="7.21021">
        <ele>804</ele>
        <time>2017-10-23T04:20:43Z</time>
      </trkpt>
      <trkpt lat="48.38928" lon="7.20993">
        <ele>799</ele>
        <time>2017-10-23T04:22:43Z</time>
      </trkpt>
      <trkpt lat="48.38855" lon="7.20787">
        <ele>778</ele>
        <time>2017-10-23T04:24:43Z</time>
      </trkpt>
      <trkpt lat="48.38846" lon="7.20639">
        <ele>768</ele>
        <time>2017-10-23T04:26:43Z</time>
      </trkpt>
      <trkpt lat="48.38841" lon="7.20662">
        <ele>771</ele>
        <time>2017-10-23T04:28:43Z</time>
      </trkpt>
      <trkpt lat="48.38828" lon="7.20699">
        <ele>771</ele>
        <time>2017-10-23T04:30:43Z</time>
      </trkpt>
      <trkpt lat="48.38817" lon="7.20748">
        <ele>770</ele>
        <time>2017-10-23T04:32:43Z</time>
      </trkpt>
      <trkpt lat="48.38815" lon="7.20787">
        <ele>769</ele>
        <time>2017-10-23T04:34:43Z</time>
      </trkpt>
      <trkpt lat="48.38815" lon="7.20812">
        <ele>768</ele>
        <time>2017-10-23T04:36:43Z</time>
      </trkpt>
      <trkpt lat="48.38816" lon="7.20847">
        <ele>767</ele>
        <time>2017-10-23T04:38:43Z</time>
      </trkpt>
      <trkpt lat="48.38826" lon="7.20896">
        <ele>767</ele>
        <time>2017-10-23T04:40:43Z</time>
      </trkpt>
      <trkpt lat="48.38835" lon="7.20937">
        <ele>768</ele>
        <time>2017-10-23T04:42:43Z</time>
      </trkpt>
      <trkpt lat="48.38847" lon="7.2097">
        <ele>771</ele>
        <time>2017-10-23T04:44:43Z</time>
      </trkpt>
      <trkpt lat="48.38855" lon="7.21012">
        <ele>772</ele>
        <time>2017-10-23T04:46:43Z</time>
      </trkpt>
      <trkpt lat="48.3886" lon="7.21069">
        <ele>772</ele>
        <time>2017-10-23T04:48:43Z</time>
      </trkpt>
      <trkpt lat="48.38863" lon="7.21111">
        <ele>774</ele>
        <time>2017-10-23T04:50:43Z</time>
      </trkpt>
      <trkpt lat="48.38864" lon="7.21142">
        <ele>776</ele>
        <time>2017-10-23T04:52:43Z</time>
      </trkpt>
      <trkpt lat="48.38863" lon="7.21165">
        <ele>776</ele>
        <time>2017-10-23T04:54:43Z</time>
      </trkpt>
      <trkpt lat="48.38857" lon="7.21208">
        <ele>776</ele>
        <time>2017-10-23T04:56:43Z</time>
      </trkpt>
      <trkpt lat="48.38844" lon="7.21277">
        <ele>776</ele>
        <time>2017-10-23T04:58:43Z</time>
      </trkpt>
      <trkpt lat="48.38838" lon="7.21312">
        <ele>776</ele>
        <time>2017-10-23T05:00:43Z</time>
      </trkpt>
      <trkpt lat="48.38831" lon="7.21386">
        <ele>780</ele>
        <time>2017-10-23T05:02:43Z</time>
      </trkpt>
      <trkpt lat="48.38822" lon="7.2142">
        <ele>782</ele>
        <time>2017-10-23T05:04:43Z</time>
      </trkpt>
      <trkpt lat="48.38811" lon="7.21441">
        <ele>782</ele>
        <time>2017-10-23T05:06:43Z</time>
      </trkpt>
      <trkpt lat="48.38783" lon="7.21468">
        <ele>780</ele>
        <time>2017-10-23T05:08:43Z</time>
      </trkpt>
      <trkpt lat="48.38752" lon="7.21492">
        <ele>778</ele>
        <time>2017-10-23T05:10:43Z</time>
      </trkpt>
      <trkpt lat="48.38705" lon="7.21525">
        <ele>775</ele>
        <time>2017-10-23T05:12:43Z</time>
      </trkpt>
      <trkpt lat="48.38676" lon="7.21546">
        <ele>774</ele>
        <time>2017-10-23T05:14:43Z</time>
      </trkpt>
      <trkpt lat="48.38657" lon="7.21558">
        <ele>773</ele>
        <time>2017-10-23T05:16:43Z</time>
      </trkpt>
      <trkpt lat="48.38592" lon="7.21549">
        <ele>764</ele>
        <time>2017-10-23T05:18:43Z</time>
      </trkpt>
      <trkpt lat="48.38582" lon="7.21547">
        <ele>763</ele>
        <time>2017-10-23T05:20:43Z</time>
      </trkpt>
      <trkpt lat="48.38566" lon="7.21553">
        <ele>760</ele>
        <time>2017-10-23T05:22:43Z</time>
      </trkpt>
      <trkpt lat="48.38559" lon="7.21568">
        <ele>761</ele>
        <time>2017-10-23T05:24:43Z</time>
      </trkpt>
      <trkpt lat="48.38554" lon="7.21598">
        <ele>764</ele>
        <time>2017-10-23T05:26:43Z</time>
      </trkpt>
      <trkpt lat="48.38553" lon="7.21622">
        <ele>768</ele>
        <time>2017-10-23T05:28:43Z</time>
      </trkpt>
      <trkpt lat="48.38548" lon="7.21646">
        <ele>770</ele>
        <time>2017-10-23T05:30:43Z</time>
      </trkpt>
      <trkpt lat="48.38543" lon="7.21671">
        <ele>772</ele>
        <time>2017-10-23T05:32:43Z</time>
      </trkpt>
      <trkpt lat="48.38533" lon="7.21706">
        <ele>774</ele>
        <time>2017-10-23T05:34:43Z</time>
      </trkpt>
      <trkpt lat="48.38529" lon="7.21724">
        <ele>775</ele>
        <time>2017-10-23T05:36:43Z</time>
      </trkpt>
      <trkpt lat="48.38526" lon="7.21741">
        <ele>776</ele>
        <time>2017-10-23T05:38:43Z</time>
      </trkpt>
      <trkpt lat="48.38524" lon="7.21754">
        <ele>777</ele>
        <time>2017-10-23T05:40:43Z</time>
      </trkpt>
      <trkpt lat="48.38524" lon="7.21774">
        <ele>779</ele>
        <time>2017-10-23T05:42:43Z</time>
      </trkpt>
      <trkpt lat="48.38509" lon="7.21794">
        <ele>776</ele>
        <time>2017-10-23T05:44:43Z</time>
      </trkpt>
      <trkpt lat="48.38498" lon="7.21809">
        <ele>774</ele>
        <time>2017-10-23T05:46:43Z</time>
      </trkpt>
      <trkpt lat="48.3849" lon="7.2183">
        <ele>774</ele>
        <time>2017-10-23T05:48:43Z</time>
      </trkpt>
      <trkpt lat="48.38468" lon="7.21871">
        <ele>772</ele>
        <time>2017-10-23T05:50:43Z</time>
      </trkpt>
      <trkpt lat="48.38457" lon="7.21894">
        <ele>772</ele>
        <time>2017-10-23T05:52:43Z</time>
      </trkpt>
      <trkpt lat="48.38451" lon="7.21909">
        <ele>771</ele>
        <time>2017-10-23T05:54:43Z</time>
      </trkpt>
      <trkpt lat="48.38444" lon="7.21925">
        <ele>771</ele>
        <time>2017-10-23T05:56:43Z</time>
      </trkpt>
      <trkpt lat="48.38438" lon="7.21948">
        <ele>771</ele>
        <time>2017-10-23T05:58:43Z</time>
      </trkpt>
      <trkpt lat="48.38431" lon="7.21963">
        <ele>770</ele>
        <time>2017-10-23T06:00:43Z</time>
      </trkpt>
      <trkpt lat="48.38424" lon="7.21996">
        <ele>771</ele>
        <time>2017-10-23T06:02:43Z</time>
      </trkpt>
      <trkpt lat="48.38402" lon="7.22124">
        <ele>764</ele>
        <time>2017-10-23T06:04:43Z</time>
      </trkpt>
      <trkpt lat="48.38396" lon="7.22137">
        <ele>762</ele>
        <time>2017-10-23T06:06:43Z</time>
      </trkpt>
      <trkpt lat="48.38384" lon="7.22149">
        <ele>758</ele>
        <time>2017-10-23T06:08:43Z</time>
      </trkpt>
      <trkpt lat="48.38371" lon="7.22174">
        <ele>755</ele>
        <time>2017-10-23T06:10:43Z</time>
      </trkpt>
      <trkpt lat="48.3836" lon="7.22186">
        <ele>752</ele>
        <time>2017-10-23T06:12:43Z</time>
      </trkpt>
      <trkpt lat="48.38337" lon="7.22227">
        <ele>747</ele>
        <time>2017-10-23T06:14:43Z</time>
      </trkpt>
      <trkpt lat="48.38312" lon="7.22269">
        <ele>743</ele>
        <time>2017-10-23T06:16:43Z</time>
      </trkpt>
      <trkpt lat="48.38303" lon="7.22277">
        <ele>741</ele>
        <time>2017-10-23T06:18:43Z</time>
      </trkpt>
      <trkpt lat="48.38297" lon="7.22319">
        <ele>744</ele>
        <time>2017-10-23T06:20:43Z</time>
      </trkpt>
      <trkpt lat="48.38294" lon="7.22356">
        <ele>746</ele>
        <time>2017-10-23T06:22:43Z</time>
      </trkpt>
      <trkpt lat="48.38286" lon="7.22448">
        <ele>749</ele>
        <time>2017-10-23T06:24:43Z</time>
      </trkpt>
      <trkpt lat="48.38233" lon="7.22408">
        <ele>727</ele>
        <time>2017-10-23T06:26:43Z</time>
      </trkpt>
      <trkpt lat="48.38187" lon="7.22356">
        <ele>709</ele>
        <time>2017-10-23T06:28:43Z</time>
      </trkpt>
      <trkpt lat="48.3814" lon="7.22358">
        <ele>696</ele>
        <time>2017-10-23T06:30:43Z</time>
      </trkpt>
      <trkpt lat="48.3811" lon="7.22352">
        <ele>688</ele>
        <time>2017-10-23T06:32:43Z</time>
      </trkpt>
      <trkpt lat="48.3807" lon="7.22325">
        <ele>677</ele>
        <time>2017-10-23T06:34:43Z</time>
      </trkpt>
      <trkpt lat="48.38085" lon="7.22244">
        <ele>673</ele>
        <time>2017-10-23T06:36:43Z</time>
      </trkpt>
      <trkpt lat="48.38074" lon="7.22222">
        <ele>670</ele>
        <time>2017-10-23T06:38:43Z</time>
      </trkpt>
      <trkpt lat="48.38073" lon="7.22232">
        <ele>670</ele>
        <time>2017-10-23T06:40:43Z</time>
      </trkpt>
      <trkpt lat="48.38081" lon="7.22244">
        <ele>672</ele>
        <time>2017-10-23T06:42:43Z</time>
      </trkpt>
      <trkpt lat="48.38062" lon="7.2233">
        <ele>676</ele>
        <time>2017-10-23T06:44:43Z</time>
      </trkpt>
      <trkpt lat="48.38112" lon="7.22362">
        <ele>689</ele>
        <time>2017-10-23T06:46:43Z</time>
      </trkpt>
      <trkpt lat="48.38138" lon="7.22369">
        <ele>696</ele>
        <time>2017-10-23T06:48:43Z</time>
      </trkpt>
      <trkpt lat="48.38186" lon="7.22367">
        <ele>710</ele>
        <time>2017-10-23T06:50:43Z</time>
      </trkpt>
      <trkpt lat="48.38229" lon="7.22417">
        <ele>726</ele>
        <time>2017-10-23T06:52:43Z</time>
      </trkpt>
      <trkpt lat="48.38285" lon="7.2246">
        <ele>750</ele>
        <time>2017-10-23T06:54:43Z</time>
      </trkpt>
      <trkpt lat="48.38278" lon="7.22551">
        <ele>752</ele>
        <time>2017-10-23T06:56:43Z</time>
      </trkpt>
      <trkpt lat="48.38276" lon="7.2261">
        <ele>754</ele>
        <time>2017-10-23T06:58:43Z</time>
      </trkpt>
      <trkpt lat="48.38275" lon="7.22659">
        <ele>755</ele>
        <time>2017-10-23T07:00:43Z</time>
      </trkpt>
      <trkpt lat="48.38271" lon="7.22685">
        <ele>754</ele>
        <time>2017-10-23T07:02:43Z</time>
      </trkpt>
      <trkpt lat="48.38276" lon="7.22724">
        <ele>757</ele>
        <time>2017-10-23T07:04:43Z</time>
      </trkpt>
      <trkpt lat="48.38295" lon="7.22851">
        <ele>778</ele>
        <time>2017-10-23T07:06:43Z</time>
      </trkpt>
      <trkpt lat="48.38297" lon="7.22884">
        <ele>784</ele>
        <time>2017-10-23T07:08:43Z</time>
      </trkpt>
      <trkpt lat="48.38286" lon="7.2293">
        <ele>787</ele>
        <time>2017-10-23T07:10:43Z</time>
      </trkpt>
      <trkpt lat="48.38284" lon="7.22949">
        <ele>789</ele>
        <time>2017-10-23T07:12:43Z</time>
      </trkpt>
      <trkpt lat="48.38285" lon="7.22986">
        <ele>793</ele>
        <time>2017-10-23T07:14:43Z</time>
      </trkpt>
      <trkpt lat="48.38287" lon="7.23021">
        <ele>798</ele>
        <time>2017-10-23T07:16:43Z</time>
      </trkpt>
      <trkpt lat="48.38285" lon="7.23033">
        <ele>799</ele>
        <time>2017-10-23T07:18:43Z</time>
      </trkpt>
      <trkpt lat="48.38282" lon="7.23043">
        <ele>799</ele>
        <time>2017-10-23T07:20:43Z</time>
      </trkpt>
      <trkpt lat="48.38277" lon="7.23051">
        <ele>799</ele>
        <time>2017-10-23T07:22:43Z</time>
      </trkpt>
      <trkpt lat="48.38263" lon="7.23066">
        <ele>798</ele>
        <time>2017-10-23T07:24:43Z</time>
      </trkpt>
      <trkpt lat="48.38242" lon="7.23073">
        <ele>796</ele>
        <time>2017-10-23T07:26:43Z</time>
      </trkpt>
      <trkpt lat="48.38216" lon="7.23075">
        <ele>794</ele>
        <time>2017-10-23T07:28:43Z</time>
      </trkpt>
      <trkpt lat="48.38192" lon="7.23077">
        <ele>792</ele>
        <time>2017-10-23T07:30:43Z</time>
      </trkpt>
      <trkpt lat="48.38175" lon="7.23076">
        <ele>791</ele>
        <time>2017-10-23T07:32:43Z</time>
      </trkpt>
      <trkpt lat="48.3819" lon="7.23097">
        <ele>797</ele>
        <time>2017-10-23T07:34:43Z</time>
      </trkpt>
      <trkpt lat="48.38204" lon="7.23114">
        <ele>803</ele>
        <time>2017-10-23T07:36:43Z</time>
      </trkpt>
      <trkpt lat="48.3822" lon="7.23126">
        <ele>807</ele>
        <time>2017-10-23T07:38:43Z</time>
      </trkpt>
      <trkpt lat="48.38237" lon="7.23132">
        <ele>810</ele>
        <time>2017-10-23T07:40:43Z</time>
      </trkpt>
      <trkpt lat="48.38248" lon="7.23138">
        <ele>812</ele>
        <time>2017-10-23T07:42:43Z</time>
      </trkpt>
      <trkpt lat="48.38268" lon="7.23144">
        <ele>817</ele>
        <time>2017-10-23T07:44:43Z</time>
      </trkpt>
      <trkpt lat="48.38288" lon="7.23151">
        <ele>822</ele>
        <time>2017-10-23T07:46:43Z</time>
      </trkpt>
      <trkpt lat="48.3831" lon="7.23155">
        <ele>826</ele>
        <time>2017-10-23T07:48:43Z</time>
      </trkpt>
      <trkpt lat="48.38326" lon="7.23159">
        <ele>829</ele>
        <time>2017-10-23T07:50:43Z</time>
      </trkpt>
      <trkpt lat="48.38339" lon="7.23166">
        <ele>833</ele>
        <time>2017-10-23T07:52:43Z</time>
      </trkpt>
      <trkpt lat="48.38351" lon="7.23172">
        <ele>835</ele>
        <time>2017-10-23T07:54:43Z</time>
      </trkpt>
      <trkpt lat="48.38383" lon="7.23195">
        <ele>844</ele>
        <time>2017-10-23T07:56:43Z</time>
      </trkpt>
      <trkpt lat="48.384" lon="7.23214">
        <ele>850</ele>
        <time>2017-10-23T07:58:43Z</time>
      </trkpt>
      <trkpt lat="48.38415" lon="7.23234">
        <ele>856</ele>
        <time>2017-10-23T08:00:43Z</time>
      </trkpt>
      <trkpt lat="48.38434" lon="7.23253">
        <ele>862</ele>
        <time>2017-10-23T08:02:43Z</time>
      </trkpt>
      <trkpt lat="48.38452" lon="7.23265">
        <ele>867</ele>
        <time>2017-10-23T08:04:43Z</time>
      </trkpt>
      <trkpt lat="48.38473" lon="7.23271">
        <ele>871</ele>
        <time>2017-10-23T08:06:43Z</time>
      </trkpt>
      <trkpt lat="48.38458" lon="7.23286">
        <ele>873</ele>
        <time>2017-10-23T08:08:43Z</time>
      </trkpt>
      <trkpt lat="48.38439" lon="7.23297">
        <ele>873</ele>
        <time>2017-10-23T08:10:43Z</time>
      </trkpt>
      <trkpt lat="48.38426" lon="7.23309">
        <ele>875</ele>
        <time>2017-10-23T08:12:43Z</time>
      </trkpt>
      <trkpt lat="48.38413" lon="7.23322">
        <ele>876</ele>
        <time>2017-10-23T08:14:43Z</time>
      </trkpt>
      <trkpt lat="48.38399" lon="7.23341">
        <ele>879</ele>
        <time>2017-10-23T08:16:43Z</time>
      </trkpt>
      <trkpt lat="48.38382" lon="7.23352">
        <ele>879</ele>
        <time>2017-10-23T08:18:43Z</time>
      </trkpt>
      <trkpt lat="48.3836" lon="7.23356">
        <ele>877</ele>
        <time>2017-10-23T08:20:43Z</time>
      </trkpt>
      <trkpt lat="48.3834" lon="7.23365">
        <ele>876</ele>
        <time>2017-10-23T08:22:43Z</time>
      </trkpt>
      <trkpt lat="48.38318" lon="7.23378">
        <ele>877</ele>
        <time>2017-10-23T08:24:43Z</time>
      </trkpt>
      <trkpt lat="48.38302" lon="7.23374">
        <ele>874</ele>
        <time>2017-10-23T08:26:43Z</time>
      </trkpt>
      <trkpt lat="48.38286" lon="7.23374">
        <ele>872</ele>
        <time>2017-10-23T08:28:43Z</time>
      </trkpt>
      <trkpt lat="48.38253" lon="7.23369">
        <ele>867</ele>
        <time>2017-10-23T08:30:43Z</time>
      </trkpt>
      <trkpt lat="48.38218" lon="7.23366">
        <ele>861</ele>
        <time>2017-10-23T08:32:43Z</time>
      </trkpt>
      <trkpt lat="48.382" lon="7.23372">
        <ele>859</ele>
        <time>2017-10-23T08:34:43Z</time>
      </trkpt>
      <trkpt lat="48.38168" lon="7.23385">
        <ele>856</ele>
        <time>2017-10-23T08:36:43Z</time>
      </trkpt>
      <trkpt lat="48.38159" lon="7.23392">
        <ele>855</ele>
        <time>2017-10-23T08:38:43Z</time>
      </trkpt>
      <trkpt lat="48.38152" lon="7.23401">
        <ele>854</ele>
        <time>2017-10-23T08:40:43Z</time>
      </trkpt>
      <trkpt lat="48.38143" lon="7.2343">
        <ele>856</ele>
        <time>2017-10-23T08:42:43Z</time>
      </trkpt>
      <trkpt lat="48.38133" lon="7.23467">
        <ele>858</ele>
        <time>2017-10-23T08:44:43Z</time>
      </trkpt>
      <trkpt lat="48.38119" lon="7.23503">
        <ele>859</ele>
        <time>2017-10-23T08:46:43Z</time>
      </trkpt>
      <trkpt lat="48.38113" lon="7.23526">
        <ele>861</ele>
        <time>2017-10-23T08:48:43Z</time>
      </trkpt>
      <trkpt lat="48.38107" lon="7.23581">
        <ele>869</ele>
        <time>2017-10-23T08:50:43Z</time>
      </trkpt>
      <trkpt lat="48.38103" lon="7.23603">
        <ele>872</ele>
        <time>2017-10-23T08:52:43Z</time>
      </trkpt>
      <trkpt lat="48.38093" lon="7.23629">
        <ele>874</ele>
        <time>2017-10-23T08:54:43Z</time>
      </trkpt>
      <trkpt lat="48.38079" lon="7.23656">
        <ele>877</ele>
        <time>2017-10-23T08:56:43Z</time>
      </trkpt>
      <trkpt lat="48.3807" lon="7.23666">
        <ele>877</ele>
        <time>2017-10-23T08:58:43Z</time>
      </trkpt>
      <trkpt lat="48.3806" lon="7.23675">
        <ele>878</ele>
        <time>2017-10-23T09:00:43Z</time>
      </trkpt>
      <trkpt lat="48.38047" lon="7.2368">
        <ele>877</ele>
        <time>2017-10-23T09:02:43Z</time>
      </trkpt>
      <trkpt lat="48.38025" lon="7.2368">
        <ele>873</ele>
        <time>2017-10-23T09:04:43Z</time>
      </trkpt>
      <trkpt lat="48.37997" lon="7.23679">
        <ele>869</ele>
        <time>2017-10-23T09:06:43Z</time>
      </trkpt>
      <trkpt lat="48.37977" lon="7.23683">
        <ele>870</ele>
        <time>2017-10-23T09:08:43Z</time>
      </trkpt>
      <trkpt lat="48.3796" lon="7.23683">
        <ele>870</ele>
        <time>2017-10-23T09:10:43Z</time>
      </trkpt>
      <trkpt lat="48.37934" lon="7.23685">
        <ele>870</ele>
        <time>2017-10-23T09:12:43Z</time>
      </trkpt>
      <trkpt lat="48.37902" lon="7.23691">
        <ele>870</ele>
        <time>2017-10-23T09:14:43Z</time>
      </trkpt>
      <trkpt lat="48.37852" lon="7.23705">
        <ele>866</ele>
        <time>2017-10-23T09:16:43Z</time>
      </trkpt>
      <trkpt lat="48.37819" lon="7.23725">
        <ele>862</ele>
        <time>2017-10-23T09:18:43Z</time>
      </trkpt>
      <trkpt lat="48.37804" lon="7.23737">
        <ele>860</ele>
        <time>2017-10-23T09:20:43Z</time>
      </trkpt>
      <trkpt lat="48.37791" lon="7.2375">
        <ele>859</ele>
        <time>2017-10-23T09:22:43Z</time>
      </trkpt>
      <trkpt lat="48.37794" lon="7.2376">
        <ele>860</ele>
        <time>2017-10-23T09:24:43Z</time>
      </trkpt>
      <trkpt lat="48.37795" lon="7.23771">
        <ele>862</ele>
        <time>2017-10-23T09:26:43Z</time>
      </trkpt>
      <trkpt lat="48.37793" lon="7.23785">
        <ele>862</ele>
        <time>2017-10-23T09:28:43Z</time>
      </trkpt>
      <trkpt lat="48.37788" lon="7.23799">
        <ele>862</ele>
        <time>2017-10-23T09:30:43Z</time>
      </trkpt>
      <trkpt lat="48.37785" lon="7.23812">
        <ele>862</ele>
        <time>2017-10-23T09:32:43Z</time>
      </trkpt>
      <trkpt lat="48.37787" lon="7.23829">
        <ele>864</ele>
        <time>2017-10-23T09:34:43Z</time>
      </trkpt>
      <trkpt lat="48.37791" lon="7.23845">
        <ele>866</ele>
        <time>2017-10-23T09:36:43Z</time>
      </trkpt>
      <trkpt lat="48.37795" lon="7.2386">
        <ele>867</ele>
        <time>2017-10-23T09:38:43Z</time>
      </trkpt>
      <trkpt lat="48.37804" lon="7.2388">
        <ele>871</ele>
        <time>2017-10-23T09:40:43Z</time>
      </trkpt>
      <trkpt lat="48.37815" lon="7.23906">
        <ele>877</ele>
        <time>2017-10-23T09:42:43Z</time>
      </trkpt>
      <trkpt lat="48.37822" lon="7.23922">
        <ele>880</ele>
        <time>2017-10-23T09:44:43Z</time>
      </trkpt>
      <trkpt lat="48.37828" lon="7.23941">
        <ele>883</ele>
        <time>2017-10-23T09:46:43Z</time>
      </trkpt>
      <trkpt lat="48.37832" lon="7.23957">
        <ele>885</ele>
        <time>2017-10-23T09:48:43Z</time>
      </trkpt>
      <trkpt lat="48.37836" lon="7.23983">
        <ele>887</ele>
        <time>2017-10-23T09:50:43Z</time>
      </trkpt>
      <trkpt lat="48.3784" lon="7.24001">
        <ele>890</ele>
        <time>2017-10-23T09:52:43Z</time>
      </trkpt>
      <trkpt lat="48.3784" lon="7.24013">
        <ele>890</ele>
        <time>2017-10-23T09:54:43Z</time>
      </trkpt>
      <trkpt lat="48.3784" lon="7.24035">
        <ele>890</ele>
        <time>2017-10-23T09:56:43Z</time>
      </trkpt>
      <trkpt lat="48.37839" lon="7.24064">
        <ele>891</ele>
        <time>2017-10-23T09:58:43Z</time>
      </trkpt>
      <trkpt lat="48.37834" lon="7.24097">
        <ele>889</ele>
        <time>2017-10-23T10:00:43Z</time>
      </trkpt>
      <trkpt lat="48.37828" lon="7.24126">
        <ele>887</ele>
        <time>2017-10-23T10:02:43Z</time>
      </trkpt>
      <trkpt lat="48.37827" lon="7.24151">
        <ele>887</ele>
        <time>2017-10-23T10:04:43Z</time>
      </trkpt>
      <trkpt lat="48.37827" lon="7.24166">
        <ele>888</ele>
        <time>2017-10-23T10:06:43Z</time>
      </trkpt>
      <trkpt lat="48.37831" lon="7.2419">
        <ele>888</ele>
        <time>2017-10-23T10:08:43Z</time>
      </trkpt>
      <trkpt lat="48.37838" lon="7.24217">
        <ele>889</ele>
        <time>2017-10-23T10:10:43Z</time>
      </trkpt>
      <trkpt lat="48.37846" lon="7.24233">
        <ele>892</ele>
        <time>2017-10-23T10:12:43Z</time>
      </trkpt>
      <trkpt lat="48.37857" lon="7.24254">
        <ele>896</ele>
        <time>2017-10-23T10:14:43Z</time>
      </trkpt>
      <trkpt lat="48.37857" lon="7.24266">
        <ele>893</ele>
        <time>2017-10-23T10:16:43Z</time>
      </trkpt>
      <trkpt lat="48.37873" lon="7.24284">
        <ele>899</ele>
        <time>2017-10-23T10:18:43Z</time>
      </trkpt>
      <trkpt lat="48.37907" lon="7.24342">
        <ele>907</ele>
        <time>2017-10-23T10:20:43Z</time>
      </trkpt>
      <trkpt lat="48.3793" lon="7.24393">
        <ele>911</ele>
        <time>2017-10-23T10:22:43Z</time>
      </trkpt>
      <trkpt lat="48.37939" lon="7.24419">
        <ele>912</ele>
        <time>2017-10-23T10:24:43Z</time>
      </trkpt>
      <trkpt lat="48.37942" lon="7.24451">
        <ele>913</ele>
        <time>2017-10-23T10:26:43Z</time>
      </trkpt>
      <trkpt lat="48.37943" lon="7.24481">
        <ele>914</ele>
        <time>2017-10-23T10:28:43Z</time>
      </trkpt>
      <trkpt lat="48.37918" lon="7.24515">
        <ele>905</ele>
        <time>2017-10-23T10:30:43Z</time>
      </trkpt>
      <trkpt lat="48.37895" lon="7.24547">
        <ele>903</ele>
        <time>2017-10-23T10:32:43Z</time>
      </trkpt>
      <trkpt lat="48.37885" lon="7.24566">
        <ele>904</ele>
        <time>2017-10-23T10:34:43Z</time>
      </trkpt>
      <trkpt lat="48.37876" lon="7.24582">
        <ele>905</ele>
        <time>2017-10-23T10:36:43Z</time>
      </trkpt>
      <trkpt lat="48.37867" lon="7.2461">
        <ele>909</ele>
        <time>2017-10-23T10:38:43Z</time>
      </trkpt>
      <trkpt lat="48.37857" lon="7.24639">
        <ele>912</ele>
        <time>2017-10-23T10:40:43Z</time>
      </trkpt>
      <trkpt lat="48.37848" lon="7.24661">
        <ele>914</ele>
        <time>2017-10-23T10:42:43Z</time>
      </trkpt>
      <trkpt lat="48.37833" lon="7.24694">
        <ele>916</ele>
        <time>2017-10-23T10:44:43Z</time>
      </trkpt>
      <trkpt lat="48.37818" lon="7.24717">
        <ele>917</ele>
        <time>2017-10-23T10:46:43Z</time>
      </trkpt>
      <trkpt lat="48.37802" lon="7.24748">
        <ele>920</ele>
        <time>2017-10-23T10:48:43Z</time>
      </trkpt>
      <trkpt lat="48.37792" lon="7.24762">
        <ele>920</ele>
        <time>2017-10-23T10:50:43Z</time>
      </trkpt>
      <trkpt lat="48.37786" lon="7.24769">
        <ele>920</ele>
        <time>2017-10-23T10:52:43Z</time>
      </trkpt>
      <trkpt lat="48.37778" lon="7.24779">
        <ele>920</ele>
        <time>2017-10-23T10:54:43Z</time>
      </trkpt>
      <trkpt lat="48.3777" lon="7.24785">
        <ele>919</ele>
        <time>2017-10-23T10:56:43Z</time>
      </trkpt>
      <trkpt lat="48.37757" lon="7.24794">
        <ele>918</ele>
        <time>2017-10-23T10:58:43Z</time>
      </trkpt>
      <trkpt lat="48.37745" lon="7.24811">
        <ele>918</ele>
        <time>2017-10-23T11:00:43Z</time>
      </trkpt>
      <trkpt lat="48.37736" lon="7.24824">
        <ele>918</ele>
        <time>2017-10-23T11:02:43Z</time>
      </trkpt>
      <trkpt lat="48.37725" lon="7.24846">
        <ele>918</ele>
        <time>2017-10-23T11:04:43Z</time>
      </trkpt>
      <trkpt lat="48.37717" lon="7.2489">
        <ele>922</ele>
        <time>2017-10-23T11:06:43Z</time>
      </trkpt>
      <trkpt lat="48.3771" lon="7.24928">
        <ele>925</ele>
        <time>2017-10-23T11:08:43Z</time>
      </trkpt>
      <trkpt lat="48.37707" lon="7.24951">
        <ele>925</ele>
        <time>2017-10-23T11:10:43Z</time>
      </trkpt>
      <trkpt lat="48.37703" lon="7.24976">
        <ele>925</ele>
        <time>2017-10-23T11:12:43Z</time>
      </trkpt>
      <trkpt lat="48.37703" lon="7.24987">
        <ele>926</ele>
        <time>2017-10-23T11:14:43Z</time>
      </trkpt>
      <trkpt lat="48.37702" lon="7.24999">
        <ele>926</ele>
        <time>2017-10-23T11:16:43Z</time>
      </trkpt>
      <trkpt lat="48.37709" lon="7.24999">
        <ele>928</ele>
        <time>2017-10-23T11:18:43Z</time>
      </trkpt>
      <trkpt lat="48.37716" lon="7.2501">
        <ele>928</ele>
        <time>2017-10-23T11:20:43Z</time>
      </trkpt>
      <trkpt lat="48.37723" lon="7.25021">
        <ele>929</ele>
        <time>2017-10-23T11:22:43Z</time>
      </trkpt>
      <trkpt lat="48.37732" lon="7.25035">
        <ele>930</ele>
        <time>2017-10-23T11:24:43Z</time>
      </trkpt>
      <trkpt lat="48.3775" lon="7.25051">
        <ele>932</ele>
        <time>2017-10-23T11:26:43Z</time>
      </trkpt>
      <trkpt lat="48.37763" lon="7.25067">
        <ele>934</ele>
        <time>2017-10-23T11:28:43Z</time>
      </trkpt>
      <trkpt lat="48.37774" lon="7.25075">
        <ele>935</ele>
        <time>2017-10-23T11:30:43Z</time>
      </trkpt>
      <trkpt lat="48.37783" lon="7.25085">
        <ele>936</ele>
        <time>2017-10-23T11:32:43Z</time>
      </trkpt>
      <trkpt lat="48.37797" lon="7.25091">
        <ele>937</ele>
        <time>2017-10-23T11:34:43Z</time>
      </trkpt>
      <trkpt lat="48.37816" lon="7.25095">
        <ele>940</ele>
        <time>2017-10-23T11:36:43Z</time>
      </trkpt>
      <trkpt lat="48.37834" lon="7.25097">
        <ele>943</ele>
        <time>2017-10-23T11:38:43Z</time>
      </trkpt>
      <trkpt lat="48.37851" lon="7.25096">
        <ele>948</ele>
        <time>2017-10-23T11:40:43Z</time>
      </trkpt>
      <trkpt lat="48.37859" lon="7.251">
        <ele>950</ele>
        <time>2017-10-23T11:42:43Z</time>
      </trkpt>
      <trkpt lat="48.37878" lon="7.25114">
        <ele>953</ele>
        <time>2017-10-23T11:44:43Z</time>
      </trkpt>
      <trkpt lat="48.37896" lon="7.25129">
        <ele>955</ele>
        <time>2017-10-23T11:46:43Z</time>
      </trkpt>
      <trkpt lat="48.37906" lon="7.25138">
        <ele>956</ele>
        <time>2017-10-23T11:48:43Z</time>
      </trkpt>
      <trkpt lat="48.37923" lon="7.25151">
        <ele>958</ele>
        <time>2017-10-23T11:50:43Z</time>
      </trkpt>
      <trkpt lat="48.37935" lon="7.2516">
        <ele>960</ele>
        <time>2017-10-23T11:52:43Z</time>
      </trkpt>
      <trkpt lat="48.37948" lon="7.25174">
        <ele>961</ele>
        <time>2017-10-23T11:54:43Z</time>
      </trkpt>
      <trkpt lat="48.37964" lon="7.2519">
        <ele>962</ele>
        <time>2017-10-23T11:56:43Z</time>
      </trkpt>
      <trkpt lat="48.3798" lon="7.25201">
        <ele>965</ele>
        <time>2017-10-23T11:58:43Z</time>
      </trkpt>
      <trkpt lat="48.37987" lon="7.25206">
        <ele>966</ele>
        <time>2017-10-23T12:00:43Z</time>
      </trkpt>
      <trkpt lat="48.37994" lon="7.25207">
        <ele>968</ele>
        <time>2017-10-23T12:02:43Z</time>
      </trkpt>
      <trkpt lat="48.38001" lon="7.25204">
        <ele>970</ele>
        <time>2017-10-23T12:04:43Z</time>
      </trkpt>
      <trkpt lat="48.38013" lon="7.2521">
        <ele>970</ele>
        <time>2017-10-23T12:06:43Z</time>
      </trkpt>
      <trkpt lat="48.38032" lon="7.25223">
        <ele>971</ele>
        <time>2017-10-23T12:08:43Z</time>
      </trkpt>
      <trkpt lat="48.38043" lon="7.25237">
        <ele>972</ele>
        <time>2017-10-23T12:10:43Z</time>
      </trkpt>
      <trkpt lat="48.38052" lon="7.25251">
        <ele>972</ele>
        <time>2017-10-23T12:12:43Z</time>
      </trkpt>
      <trkpt lat="48.38059" lon="7.25266">
        <ele>973</ele>
        <time>2017-10-23T12:14:43Z</time>
      </trkpt>
      <trkpt lat="48.38066" lon="7.25274">
        <ele>974</ele>
        <time>2017-10-23T12:16:43Z</time>
      </trkpt>
      <trkpt lat="48.38076" lon="7.25278">
        <ele>976</ele>
        <time>2017-10-23T12:18:43Z</time>
      </trkpt>
      <trkpt lat="48.38092" lon="7.25281">
        <ele>978</ele>
        <time>2017-10-23T12:20:43Z</time>
      </trkpt>
      <trkpt lat="48.38109" lon="7.2528">
        <ele>978</ele>
        <time>2017-10-23T12:22:43Z</time>
      </trkpt>
      <trkpt lat="48.38118" lon="7.25277">
        <ele>978</ele>
        <time>2017-10-23T12:24:43Z</time>
      </trkpt>
      <trkpt lat="48.38131" lon="7.25272">
        <ele>979</ele>
        <time>2017-10-23T12:26:43Z</time>
      </trkpt>
      <trkpt lat="48.38138" lon="7.2528">
        <ele>979</ele>
        <time>2017-10-23T12:28:43Z</time>
      </trkpt>
      <trkpt lat="48.38142" lon="7.25289">
        <ele>979</ele>
        <time>2017-10-23T12:30:43Z</time>
      </trkpt>
      <trkpt lat="48.38138" lon="7.25301">
        <ele>979</ele>
        <time>2017-10-23T12:32:43Z</time>
      </trkpt>
      <trkpt lat="48.38134" lon="7.25335">
        <ele>980</ele>
        <time>2017-10-23T12:34:43Z</time>
      </trkpt>
      <trkpt lat="48.3813" lon="7.25374">
        <ele>982</ele>
        <time>2017-10-23T12:36:43Z</time>
      </trkpt>
      <trkpt lat="48.38126" lon="7.25402">
        <ele>983</ele>
        <time>2017-10-23T12:38:43Z</time>
      </trkpt>
      <trkpt lat="48.38122" lon="7.25443">
        <ele>984</ele>
        <time>2017-10-23T12:40:43Z</time>
      </trkpt>
      <trkpt lat="48.38118" lon="7.25477">
        <ele>985</ele>
        <time>2017-10-23T12:42:43Z</time>
      </trkpt>
      <trkpt lat="48.38122" lon="7.25516">
        <ele>986</ele>
        <time>2017-10-23T12:44:43Z</time>
      </trkpt>
      <trkpt lat="48.3814" lon="7.25578">
        <ele>985</ele>
        <time>2017-10-23T12:46:43Z</time>
      </trkpt>
      <trkpt lat="48.38152" lon="7.256">
        <ele>985</ele>
        <time>2017-10-23T12:48:43Z</time>
      </trkpt>
      <trkpt lat="48.38164" lon="7.25607">
        <ele>986</ele>
        <time>2017-10-23T12:50:43Z</time>
      </trkpt>
      <trkpt lat="48.38185" lon="7.2562">
        <ele>984</ele>
        <time>2017-10-23T12:52:43Z</time>
      </trkpt>
      <trkpt lat="48.3822" lon="7.25641">
        <ele>979</ele>
        <time>2017-10-23T12:54:43Z</time>
      </trkpt>
      <trkpt lat="48.38247" lon="7.2566">
        <ele>977</ele>
        <time>2017-10-23T12:56:43Z</time>
      </trkpt>
      <trkpt lat="48.38271" lon="7.25677">
        <ele>974</ele>
        <time>2017-10-23T12:58:43Z</time>
      </trkpt>
      <trkpt lat="48.38281" lon="7.25683">
        <ele>973</ele>
        <time>2017-10-23T13:00:43Z</time>
      </trkpt>
      <trkpt lat="48.38292" lon="7.25692">
        <ele>972</ele>
        <time>2017-10-23T13:02:43Z</time>
      </trkpt>
      <trkpt lat="48.38306" lon="7.25696">
        <ele>970</ele>
        <time>2017-10-23T13:04:43Z</time>
      </trkpt>
      <trkpt lat="48.38317" lon="7.25699">
        <ele>969</ele>
        <time>2017-10-23T13:06:43Z</time>
      </trkpt>
      <trkpt lat="48.38325" lon="7.25718">
        <ele>967</ele>
        <time>2017-10-23T13:08:43Z</time>
      </trkpt>
      <trkpt lat="48.38336" lon="7.25737">
        <ele>966</ele>
        <time>2017-10-23T13:10:43Z</time>
      </trkpt>
      <trkpt lat="48.38343" lon="7.25744">
        <ele>966</ele>
        <time>2017-10-23T13:12:43Z</time>
      </trkpt>
      <trkpt lat="48.38348" lon="7.25736">
        <ele>967</ele>
        <time>2017-10-23T13:14:43Z</time>
      </trkpt>
      <trkpt lat="48.38357" lon="7.25752">
        <ele>967</ele>
        <time>2017-10-23T13:16:43Z</time>
      </trkpt>
      <trkpt lat="48.38369" lon="7.25765">
        <ele>967</ele>
        <time>2017-10-23T13:18:43Z</time>
      </trkpt>
    </trkseg>
  </trk>
</gpx>